sensor_id;sensor_type;location;lat;lon;timestamp;P1;durP1;ratioP1;P2;durP2;ratioP2
16426;SDS011;8322;-33.900;151.170;2023-12-29T00:00:52;7.88;;;1.70;;
16426;SDS011;8322;-33.900;151.170;2023-12-29T00:03:21;5.03;;;1.33;;
16426;SDS011;8322;-33.900;151.170;2023-12-29T00:05:51;6.55;;;1.50;;
16426;SDS011;8322;-33.900;151.170;2023-12-29T00:08:22;8.32;;;1.50;;
16426;SDS011;8322;-33.900;151.170;2023-12-29T00:10:51;9.68;;;1.35;;
16426;SDS011;8322;-33.900;151.170;2023-12-29T00:13:21;9.23;;;1.67;;
16426;SDS011;8322;-33.900;151.170;2023-12-29T00:15:51;7.97;;;1.42;;
16426;SDS011;8322;-33.900;151.170;2023-12-29T00:18:21;7.68;;;1.50;;
16426;SDS011;8322;-33.900;151.170;2023-12-29T00:20:51;9.80;;;1.77;;
16426;SDS011;8322;-33.900;151.170;2023-12-29T00:23:22;9.25;;;1.63;;
16426;SDS011;8322;-33.900;151.170;2023-12-29T00:25:52;8.02;;;1.85;;
16426;SDS011;8322;-33.900;151.170;2023-12-29T00:28:21;10.77;;;1.92;;
16426;SDS011;8322;-33.900;151.170;2023-12-29T00:30:51;8.07;;;1.50;;
16426;SDS011;8322;-33.900;151.170;2023-12-29T00:33:20;11.85;;;2.00;;
16426;SDS011;8322;-33.900;151.170;2023-12-29T00:35:50;10.32;;;1.70;;
16426;SDS011;8322;-33.900;151.170;2023-12-29T00:38:19;8.02;;;1.63;;
16426;SDS011;8322;-33.900;151.170;2023-12-29T00:40:50;9.88;;;1.88;;
16426;SDS011;8322;-33.900;151.170;2023-12-29T00:43:20;10.10;;;1.75;;
16426;SDS011;8322;-33.900;151.170;2023-12-29T00:45:49;8.85;;;1.63;;
16426;SDS011;8322;-33.900;151.170;2023-12-29T00:48:19;8.38;;;1.48;;
16426;SDS011;8322;-33.900;151.170;2023-12-29T00:50:49;7.22;;;1.60;;
16426;SDS011;8322;-33.900;151.170;2023-12-29T00:53:18;9.95;;;1.98;;
16426;SDS011;8322;-33.900;151.170;2023-12-29T00:55:48;13.65;;;1.67;;
16426;SDS011;8322;-33.900;151.170;2023-12-29T00:58:19;8.30;;;1.85;;
16426;SDS011;8322;-33.900;151.170;2023-12-29T01:00:48;8.80;;;1.83;;
16426;SDS011;8322;-33.900;151.170;2023-12-29T01:03:18;9.88;;;1.65;;
16426;SDS011;8322;-33.900;151.170;2023-12-29T01:05:48;8.00;;;1.80;;
16426;SDS011;8322;-33.900;151.170;2023-12-29T01:08:17;9.75;;;1.98;;
16426;SDS011;8322;-33.900;151.170;2023-12-29T01:10:47;6.05;;;1.98;;
16426;SDS011;8322;-33.900;151.170;2023-12-29T01:13:18;6.32;;;2.10;;
16426;SDS011;8322;-33.900;151.170;2023-12-29T01:15:48;6.50;;;1.73;;
16426;SDS011;8322;-33.900;151.170;2023-12-29T01:18:17;14.93;;;2.08;;
16426;SDS011;8322;-33.900;151.170;2023-12-29T01:20:47;6.55;;;1.73;;
16426;SDS011;8322;-33.900;151.170;2023-12-29T01:23:16;7.05;;;2.03;;
16426;SDS011;8322;-33.900;151.170;2023-12-29T01:25:46;8.80;;;1.83;;
16426;SDS011;8322;-33.900;151.170;2023-12-29T01:28:15;9.85;;;2.20;;
16426;SDS011;8322;-33.900;151.170;2023-12-29T01:30:47;10.45;;;2.15;;
16426;SDS011;8322;-33.900;151.170;2023-12-29T01:33:16;8.25;;;1.73;;
16426;SDS011;8322;-33.900;151.170;2023-12-29T01:35:47;10.80;;;2.00;;
16426;SDS011;8322;-33.900;151.170;2023-12-29T01:38:17;7.13;;;2.08;;
16426;SDS011;8322;-33.900;151.170;2023-12-29T01:40:46;10.70;;;2.20;;
16426;SDS011;8322;-33.900;151.170;2023-12-29T01:43:16;7.70;;;1.90;;
16426;SDS011;8322;-33.900;151.170;2023-12-29T01:45:47;12.63;;;2.60;;
16426;SDS011;8322;-33.900;151.170;2023-12-29T01:48:16;7.20;;;1.75;;
16426;SDS011;8322;-33.900;151.170;2023-12-29T01:50:46;9.50;;;2.10;;
16426;SDS011;8322;-33.900;151.170;2023-12-29T01:53:16;9.32;;;2.40;;
16426;SDS011;8322;-33.900;151.170;2023-12-29T01:55:45;12.65;;;2.28;;
16426;SDS011;8322;-33.900;151.170;2023-12-29T01:58:15;7.97;;;1.95;;
16426;SDS011;8322;-33.900;151.170;2023-12-29T02:00:45;12.57;;;2.30;;
16426;SDS011;8322;-33.900;151.170;2023-12-29T02:03:16;8.88;;;2.00;;
16426;SDS011;8322;-33.900;151.170;2023-12-29T02:05:46;11.15;;;2.20;;
16426;SDS011;8322;-33.900;151.170;2023-12-29T02:08:16;7.22;;;2.25;;
16426;SDS011;8322;-33.900;151.170;2023-12-29T02:10:46;10.40;;;2.55;;
16426;SDS011;8322;-33.900;151.170;2023-12-29T02:13:16;7.28;;;2.10;;
16426;SDS011;8322;-33.900;151.170;2023-12-29T02:15:45;10.20;;;3.60;;
16426;SDS011;8322;-33.900;151.170;2023-12-29T02:18:18;10.32;;;3.85;;
16426;SDS011;8322;-33.900;151.170;2023-12-29T02:20:48;8.27;;;2.85;;
16426;SDS011;8322;-33.900;151.170;2023-12-29T02:23:17;7.32;;;2.90;;
16426;SDS011;8322;-33.900;151.170;2023-12-29T02:25:48;9.57;;;2.05;;
16426;SDS011;8322;-33.900;151.170;2023-12-29T02:28:19;7.70;;;2.17;;
16426;SDS011;8322;-33.900;151.170;2023-12-29T02:30:51;10.30;;;2.40;;
16426;SDS011;8322;-33.900;151.170;2023-12-29T02:33:23;8.98;;;3.28;;
16426;SDS011;8322;-33.900;151.170;2023-12-29T02:35:55;9.68;;;3.20;;
16426;SDS011;8322;-33.900;151.170;2023-12-29T02:38:26;8.18;;;2.40;;
16426;SDS011;8322;-33.900;151.170;2023-12-29T02:40:57;14.50;;;3.47;;
16426;SDS011;8322;-33.900;151.170;2023-12-29T02:43:27;9.73;;;2.13;;
16426;SDS011;8322;-33.900;151.170;2023-12-29T02:45:56;7.85;;;1.95;;
16426;SDS011;8322;-33.900;151.170;2023-12-29T02:48:26;11.35;;;2.72;;
16426;SDS011;8322;-33.900;151.170;2023-12-29T02:50:55;11.43;;;2.47;;
16426;SDS011;8322;-33.900;151.170;2023-12-29T02:53:25;13.27;;;3.28;;
16426;SDS011;8322;-33.900;151.170;2023-12-29T02:55:54;8.50;;;2.42;;
16426;SDS011;8322;-33.900;151.170;2023-12-29T02:58:26;9.45;;;1.83;;
16426;SDS011;8322;-33.900;151.170;2023-12-29T03:00:55;11.43;;;2.00;;
16426;SDS011;8322;-33.900;151.170;2023-12-29T03:03:24;14.02;;;2.83;;
16426;SDS011;8322;-33.900;151.170;2023-12-29T03:05:54;7.07;;;2.05;;
16426;SDS011;8322;-33.900;151.170;2023-12-29T03:08:23;8.20;;;2.28;;
16426;SDS011;8322;-33.900;151.170;2023-12-29T03:10:53;11.10;;;3.58;;
16426;SDS011;8322;-33.900;151.170;2023-12-29T03:13:22;11.55;;;2.53;;
16426;SDS011;8322;-33.900;151.170;2023-12-29T03:15:54;9.15;;;2.47;;
16426;SDS011;8322;-33.900;151.170;2023-12-29T03:18:23;11.82;;;2.97;;
16426;SDS011;8322;-33.900;151.170;2023-12-29T03:20:53;9.32;;;2.72;;
16426;SDS011;8322;-33.900;151.170;2023-12-29T03:23:22;6.32;;;2.28;;
16426;SDS011;8322;-33.900;151.170;2023-12-29T03:25:52;9.98;;;2.45;;
16426;SDS011;8322;-33.900;151.170;2023-12-29T03:28:21;11.85;;;2.60;;
16426;SDS011;8322;-33.900;151.170;2023-12-29T03:30:51;10.27;;;1.98;;
16426;SDS011;8322;-33.900;151.170;2023-12-29T03:33:22;11.20;;;2.35;;
16426;SDS011;8322;-33.900;151.170;2023-12-29T03:35:51;10.32;;;1.83;;
16426;SDS011;8322;-33.900;151.170;2023-12-29T03:38:21;6.72;;;2.00;;
16426;SDS011;8322;-33.900;151.170;2023-12-29T03:40:50;9.15;;;2.22;;
16426;SDS011;8322;-33.900;151.170;2023-12-29T03:43:20;10.82;;;2.17;;
16426;SDS011;8322;-33.900;151.170;2023-12-29T03:45:49;9.05;;;1.98;;
16426;SDS011;8322;-33.900;151.170;2023-12-29T03:48:19;10.52;;;1.90;;
16426;SDS011;8322;-33.900;151.170;2023-12-29T03:50:50;6.32;;;1.63;;
16426;SDS011;8322;-33.900;151.170;2023-12-29T03:53:20;9.45;;;1.90;;
16426;SDS011;8322;-33.900;151.170;2023-12-29T03:55:49;9.98;;;2.10;;
16426;SDS011;8322;-33.900;151.170;2023-12-29T03:58:19;7.25;;;2.25;;
16426;SDS011;8322;-33.900;151.170;2023-12-29T04:00:48;9.35;;;1.70;;
16426;SDS011;8322;-33.900;151.170;2023-12-29T04:03:18;10.70;;;2.30;;
16426;SDS011;8322;-33.900;151.170;2023-12-29T04:05:47;7.70;;;1.90;;
16426;SDS011;8322;-33.900;151.170;2023-12-29T04:08:18;11.73;;;1.67;;
16426;SDS011;8322;-33.900;151.170;2023-12-29T04:10:48;16.20;;;2.40;;
16426;SDS011;8322;-33.900;151.170;2023-12-29T04:13:18;11.40;;;2.17;;
16426;SDS011;8322;-33.900;151.170;2023-12-29T04:15:47;7.68;;;2.15;;
16426;SDS011;8322;-33.900;151.170;2023-12-29T04:18:17;10.13;;;1.90;;
16426;SDS011;8322;-33.900;151.170;2023-12-29T04:20:46;8.82;;;2.10;;
16426;SDS011;8322;-33.900;151.170;2023-12-29T04:23:16;9.80;;;2.60;;
16426;SDS011;8322;-33.900;151.170;2023-12-29T04:25:47;8.02;;;2.13;;
16426;SDS011;8322;-33.900;151.170;2023-12-29T04:28:17;10.25;;;2.17;;
16426;SDS011;8322;-33.900;151.170;2023-12-29T04:30:46;9.50;;;2.17;;
16426;SDS011;8322;-33.900;151.170;2023-12-29T04:33:16;12.07;;;2.85;;
16426;SDS011;8322;-33.900;151.170;2023-12-29T04:35:45;14.35;;;4.25;;
16426;SDS011;8322;-33.900;151.170;2023-12-29T04:38:15;9.55;;;3.30;;
16426;SDS011;8322;-33.900;151.170;2023-12-29T04:40:47;9.40;;;2.80;;
16426;SDS011;8322;-33.900;151.170;2023-12-29T04:43:17;10.73;;;2.20;;
16426;SDS011;8322;-33.900;151.170;2023-12-29T04:45:46;8.95;;;2.30;;
16426;SDS011;8322;-33.900;151.170;2023-12-29T04:48:16;11.93;;;2.50;;
16426;SDS011;8322;-33.900;151.170;2023-12-29T04:50:45;12.52;;;3.10;;
16426;SDS011;8322;-33.900;151.170;2023-12-29T04:53:15;9.70;;;2.53;;
16426;SDS011;8322;-33.900;151.170;2023-12-29T04:55:44;9.07;;;1.95;;
16426;SDS011;8322;-33.900;151.170;2023-12-29T04:58:15;10.15;;;2.60;;
16426;SDS011;8322;-33.900;151.170;2023-12-29T05:00:45;13.07;;;2.38;;
16426;SDS011;8322;-33.900;151.170;2023-12-29T05:03:14;8.57;;;1.90;;
16426;SDS011;8322;-33.900;151.170;2023-12-29T05:05:44;13.65;;;2.40;;
16426;SDS011;8322;-33.900;151.170;2023-12-29T05:08:13;11.25;;;4.90;;
16426;SDS011;8322;-33.900;151.170;2023-12-29T05:10:43;9.27;;;1.73;;
16426;SDS011;8322;-33.900;151.170;2023-12-29T05:13:12;10.65;;;3.13;;
16426;SDS011;8322;-33.900;151.170;2023-12-29T05:15:44;9.43;;;2.22;;
16426;SDS011;8322;-33.900;151.170;2023-12-29T05:18:13;8.60;;;2.50;;
16426;SDS011;8322;-33.900;151.170;2023-12-29T05:20:43;12.15;;;2.65;;
16426;SDS011;8322;-33.900;151.170;2023-12-29T05:23:12;13.02;;;3.05;;
16426;SDS011;8322;-33.900;151.170;2023-12-29T05:25:42;8.95;;;2.15;;
16426;SDS011;8322;-33.900;151.170;2023-12-29T05:28:11;10.95;;;2.38;;
16426;SDS011;8322;-33.900;151.170;2023-12-29T05:30:41;10.93;;;2.88;;
16426;SDS011;8322;-33.900;151.170;2023-12-29T05:33:12;15.48;;;3.03;;
16426;SDS011;8322;-33.900;151.170;2023-12-29T05:35:42;8.73;;;2.05;;
16426;SDS011;8322;-33.900;151.170;2023-12-29T05:38:11;11.93;;;2.05;;
16426;SDS011;8322;-33.900;151.170;2023-12-29T05:40:41;9.93;;;3.80;;
16426;SDS011;8322;-33.900;151.170;2023-12-29T05:43:10;18.30;;;7.93;;
16426;SDS011;8322;-33.900;151.170;2023-12-29T05:45:40;12.38;;;4.72;;
16426;SDS011;8322;-33.900;151.170;2023-12-29T05:48:10;16.63;;;4.10;;
16426;SDS011;8322;-33.900;151.170;2023-12-29T05:50:41;14.43;;;3.10;;
16426;SDS011;8322;-33.900;151.170;2023-12-29T05:53:11;10.57;;;2.50;;
16426;SDS011;8322;-33.900;151.170;2023-12-29T05:55:41;11.45;;;1.60;;
16426;SDS011;8322;-33.900;151.170;2023-12-29T05:58:10;7.78;;;1.92;;
16426;SDS011;8322;-33.900;151.170;2023-12-29T06:00:40;13.00;;;2.50;;
16426;SDS011;8322;-33.900;151.170;2023-12-29T06:03:10;11.18;;;2.70;;
16426;SDS011;8322;-33.900;151.170;2023-12-29T06:05:42;10.77;;;2.83;;
16426;SDS011;8322;-33.900;151.170;2023-12-29T06:08:11;8.80;;;1.92;;
16426;SDS011;8322;-33.900;151.170;2023-12-29T06:10:41;10.73;;;2.42;;
16426;SDS011;8322;-33.900;151.170;2023-12-29T06:13:10;10.23;;;3.40;;
16426;SDS011;8322;-33.900;151.170;2023-12-29T06:15:40;11.88;;;2.25;;
16426;SDS011;8322;-33.900;151.170;2023-12-29T06:18:10;10.98;;;2.97;;
16426;SDS011;8322;-33.900;151.170;2023-12-29T06:20:42;10.23;;;2.80;;
16426;SDS011;8322;-33.900;151.170;2023-12-29T06:23:11;13.10;;;2.63;;
16426;SDS011;8322;-33.900;151.170;2023-12-29T06:25:42;9.85;;;2.55;;
16426;SDS011;8322;-33.900;151.170;2023-12-29T06:28:12;10.68;;;2.30;;
16426;SDS011;8322;-33.900;151.170;2023-12-29T06:30:42;10.60;;;2.33;;
16426;SDS011;8322;-33.900;151.170;2023-12-29T06:33:11;10.15;;;2.60;;
16426;SDS011;8322;-33.900;151.170;2023-12-29T06:35:43;9.90;;;2.60;;
16426;SDS011;8322;-33.900;151.170;2023-12-29T06:38:12;14.18;;;2.85;;
16426;SDS011;8322;-33.900;151.170;2023-12-29T06:40:42;12.48;;;3.20;;
16426;SDS011;8322;-33.900;151.170;2023-12-29T06:43:11;10.25;;;3.00;;
16426;SDS011;8322;-33.900;151.170;2023-12-29T06:45:41;11.10;;;2.92;;
16426;SDS011;8322;-33.900;151.170;2023-12-29T06:48:11;13.27;;;2.63;;
16426;SDS011;8322;-33.900;151.170;2023-12-29T06:50:47;8.77;;;2.22;;
16426;SDS011;8322;-33.900;151.170;2023-12-29T06:53:17;9.95;;;2.88;;
16426;SDS011;8322;-33.900;151.170;2023-12-29T06:55:46;9.60;;;2.20;;
16426;SDS011;8322;-33.900;151.170;2023-12-29T06:58:16;11.27;;;2.83;;
16426;SDS011;8322;-33.900;151.170;2023-12-29T07:00:48;14.75;;;3.35;;
16426;SDS011;8322;-33.900;151.170;2023-12-29T07:03:18;13.38;;;2.92;;
16426;SDS011;8322;-33.900;151.170;2023-12-29T07:05:49;11.88;;;3.58;;
16426;SDS011;8322;-33.900;151.170;2023-12-29T07:08:19;9.52;;;3.10;;
16426;SDS011;8322;-33.900;151.170;2023-12-29T07:10:48;10.82;;;3.67;;
16426;SDS011;8322;-33.900;151.170;2023-12-29T07:13:18;12.43;;;3.40;;
16426;SDS011;8322;-33.900;151.170;2023-12-29T07:15:47;8.30;;;2.97;;
16426;SDS011;8322;-33.900;151.170;2023-12-29T07:18:19;14.27;;;4.20;;
16426;SDS011;8322;-33.900;151.170;2023-12-29T07:20:51;11.48;;;4.65;;
16426;SDS011;8322;-33.900;151.170;2023-12-29T07:23:20;12.68;;;3.85;;
16426;SDS011;8322;-33.900;151.170;2023-12-29T07:25:50;10.27;;;3.55;;
16426;SDS011;8322;-33.900;151.170;2023-12-29T07:28:19;12.60;;;3.67;;
16426;SDS011;8322;-33.900;151.170;2023-12-29T07:30:49;10.80;;;3.42;;
16426;SDS011;8322;-33.900;151.170;2023-12-29T07:33:18;10.82;;;4.07;;
16426;SDS011;8322;-33.900;151.170;2023-12-29T07:35:48;18.58;;;5.72;;
16426;SDS011;8322;-33.900;151.170;2023-12-29T07:38:19;22.17;;;8.20;;
16426;SDS011;8322;-33.900;151.170;2023-12-29T07:40:49;13.90;;;3.67;;
16426;SDS011;8322;-33.900;151.170;2023-12-29T07:43:21;8.13;;;2.60;;
16426;SDS011;8322;-33.900;151.170;2023-12-29T07:45:51;10.82;;;2.97;;
16426;SDS011;8322;-33.900;151.170;2023-12-29T07:48:20;13.95;;;3.42;;
16426;SDS011;8322;-33.900;151.170;2023-12-29T07:50:52;11.43;;;3.85;;
16426;SDS011;8322;-33.900;151.170;2023-12-29T07:53:24;13.45;;;3.60;;
16426;SDS011;8322;-33.900;151.170;2023-12-29T07:55:53;17.02;;;3.92;;
16426;SDS011;8322;-33.900;151.170;2023-12-29T07:58:23;15.50;;;4.45;;
16426;SDS011;8322;-33.900;151.170;2023-12-29T08:00:52;12.40;;;4.05;;
16426;SDS011;8322;-33.900;151.170;2023-12-29T08:03:22;16.63;;;5.05;;
16426;SDS011;8322;-33.900;151.170;2023-12-29T08:05:51;14.15;;;4.03;;
16426;SDS011;8322;-33.900;151.170;2023-12-29T08:08:21;11.63;;;4.03;;
16426;SDS011;8322;-33.900;151.170;2023-12-29T08:10:52;13.10;;;4.03;;
16426;SDS011;8322;-33.900;151.170;2023-12-29T08:13:22;11.35;;;3.50;;
16426;SDS011;8322;-33.900;151.170;2023-12-29T08:15:52;15.60;;;5.90;;
16426;SDS011;8322;-33.900;151.170;2023-12-29T08:18:21;11.82;;;3.65;;
16426;SDS011;8322;-33.900;151.170;2023-12-29T08:20:51;12.00;;;3.83;;
16426;SDS011;8322;-33.900;151.170;2023-12-29T08:23:20;13.50;;;4.32;;
16426;SDS011;8322;-33.900;151.170;2023-12-29T08:25:54;13.30;;;6.60;;
16426;SDS011;8322;-33.900;151.170;2023-12-29T08:28:25;11.75;;;3.53;;
16426;SDS011;8322;-33.900;151.170;2023-12-29T08:30:55;10.07;;;3.78;;
16426;SDS011;8322;-33.900;151.170;2023-12-29T08:33:24;17.27;;;4.43;;
16426;SDS011;8322;-33.900;151.170;2023-12-29T08:35:54;10.45;;;3.95;;
16426;SDS011;8322;-33.900;151.170;2023-12-29T08:38:26;10.25;;;4.15;;
16426;SDS011;8322;-33.900;151.170;2023-12-29T08:40:58;12.95;;;3.97;;
16426;SDS011;8322;-33.900;151.170;2023-12-29T08:43:27;10.00;;;3.42;;
16426;SDS011;8322;-33.900;151.170;2023-12-29T08:45:59;13.35;;;3.85;;
16426;SDS011;8322;-33.900;151.170;2023-12-29T08:48:30;11.63;;;3.70;;
16426;SDS011;8322;-33.900;151.170;2023-12-29T08:51:00;11.95;;;3.05;;
16426;SDS011;8322;-33.900;151.170;2023-12-29T08:53:30;11.48;;;3.10;;
16426;SDS011;8322;-33.900;151.170;2023-12-29T08:56:03;9.02;;;3.17;;
16426;SDS011;8322;-33.900;151.170;2023-12-29T08:58:33;12.38;;;3.17;;
16426;SDS011;8322;-33.900;151.170;2023-12-29T09:01:02;17.27;;;3.63;;
16426;SDS011;8322;-33.900;151.170;2023-12-29T09:03:32;18.63;;;9.50;;
16426;SDS011;8322;-33.900;151.170;2023-12-29T09:06:01;20.45;;;8.10;;
16426;SDS011;8322;-33.900;151.170;2023-12-29T09:08:31;27.98;;;13.23;;
16426;SDS011;8322;-33.900;151.170;2023-12-29T09:11:05;36.03;;;16.35;;
16426;SDS011;8322;-33.900;151.170;2023-12-29T09:13:35;32.85;;;15.68;;
16426;SDS011;8322;-33.900;151.170;2023-12-29T09:16:05;23.25;;;10.13;;
16426;SDS011;8322;-33.900;151.170;2023-12-29T09:18:34;17.13;;;6.63;;
16426;SDS011;8322;-33.900;151.170;2023-12-29T09:21:04;11.05;;;3.33;;
16426;SDS011;8322;-33.900;151.170;2023-12-29T09:23:33;9.02;;;3.30;;
16426;SDS011;8322;-33.900;151.170;2023-12-29T09:26:06;10.75;;;3.60;;
16426;SDS011;8322;-33.900;151.170;2023-12-29T09:28:36;11.50;;;4.07;;
16426;SDS011;8322;-33.900;151.170;2023-12-29T09:31:05;14.00;;;4.00;;
16426;SDS011;8322;-33.900;151.170;2023-12-29T09:33:38;10.25;;;3.03;;
16426;SDS011;8322;-33.900;151.170;2023-12-29T09:36:07;13.10;;;3.85;;
16426;SDS011;8322;-33.900;151.170;2023-12-29T09:38:37;13.30;;;3.65;;
16426;SDS011;8322;-33.900;151.170;2023-12-29T09:41:10;12.13;;;3.17;;
16426;SDS011;8322;-33.900;151.170;2023-12-29T09:43:40;9.77;;;3.30;;
16426;SDS011;8322;-33.900;151.170;2023-12-29T09:46:10;15.60;;;3.33;;
16426;SDS011;8322;-33.900;151.170;2023-12-29T09:48:41;13.25;;;3.13;;
16426;SDS011;8322;-33.900;151.170;2023-12-29T09:51:12;11.80;;;3.15;;
16426;SDS011;8322;-33.900;151.170;2023-12-29T09:53:41;11.38;;;2.88;;
16426;SDS011;8322;-33.900;151.170;2023-12-29T09:56:13;10.63;;;2.70;;
16426;SDS011;8322;-33.900;151.170;2023-12-29T09:58:43;10.77;;;3.05;;
16426;SDS011;8322;-33.900;151.170;2023-12-29T10:01:13;8.25;;;2.92;;
16426;SDS011;8322;-33.900;151.170;2023-12-29T10:03:42;12.07;;;3.17;;
16426;SDS011;8322;-33.900;151.170;2023-12-29T10:06:12;13.45;;;2.60;;
16426;SDS011;8322;-33.900;151.170;2023-12-29T10:08:43;11.27;;;2.85;;
16426;SDS011;8322;-33.900;151.170;2023-12-29T10:11:16;10.88;;;2.83;;
16426;SDS011;8322;-33.900;151.170;2023-12-29T10:13:47;10.95;;;2.60;;
16426;SDS011;8322;-33.900;151.170;2023-12-29T10:16:21;11.07;;;3.00;;
16426;SDS011;8322;-33.900;151.170;2023-12-29T10:18:55;10.65;;;2.88;;
16426;SDS011;8322;-33.900;151.170;2023-12-29T10:21:29;10.05;;;2.75;;
16426;SDS011;8322;-33.900;151.170;2023-12-29T10:24:02;11.02;;;2.80;;
16426;SDS011;8322;-33.900;151.170;2023-12-29T10:26:34;8.85;;;2.70;;
16426;SDS011;8322;-33.900;151.170;2023-12-29T10:29:04;11.50;;;2.75;;
16426;SDS011;8322;-33.900;151.170;2023-12-29T10:31:34;11.65;;;3.05;;
16426;SDS011;8322;-33.900;151.170;2023-12-29T10:34:18;6.32;;;2.30;;
16426;SDS011;8322;-33.900;151.170;2023-12-29T10:36:54;5.90;;;2.35;;
16426;SDS011;8322;-33.900;151.170;2023-12-29T10:39:24;8.55;;;2.50;;
16426;SDS011;8322;-33.900;151.170;2023-12-29T10:42:02;8.70;;;2.58;;
16426;SDS011;8322;-33.900;151.170;2023-12-29T10:44:33;7.53;;;2.42;;
16426;SDS011;8322;-33.900;151.170;2023-12-29T10:47:08;7.57;;;1.85;;
16426;SDS011;8322;-33.900;151.170;2023-12-29T10:49:39;6.70;;;2.25;;
16426;SDS011;8322;-33.900;151.170;2023-12-29T10:52:11;5.05;;;1.98;;
16426;SDS011;8322;-33.900;151.170;2023-12-29T10:54:41;9.27;;;2.13;;
16426;SDS011;8322;-33.900;151.170;2023-12-29T10:57:12;6.10;;;2.13;;
16426;SDS011;8322;-33.900;151.170;2023-12-29T10:59:42;8.95;;;2.25;;
16426;SDS011;8322;-33.900;151.170;2023-12-29T11:02:11;6.60;;;2.03;;
16426;SDS011;8322;-33.900;151.170;2023-12-29T11:04:43;7.65;;;2.35;;
16426;SDS011;8322;-33.900;151.170;2023-12-29T11:07:13;7.82;;;2.45;;
16426;SDS011;8322;-33.900;151.170;2023-12-29T11:09:42;5.25;;;2.10;;
16426;SDS011;8322;-33.900;151.170;2023-12-29T11:12:14;8.27;;;2.30;;
16426;SDS011;8322;-33.900;151.170;2023-12-29T11:14:45;9.75;;;2.35;;
16426;SDS011;8322;-33.900;151.170;2023-12-29T11:17:15;7.53;;;2.53;;
16426;SDS011;8322;-33.900;151.170;2023-12-29T11:19:45;17.38;;;6.60;;
16426;SDS011;8322;-33.900;151.170;2023-12-29T11:22:15;15.55;;;5.35;;
16426;SDS011;8322;-33.900;151.170;2023-12-29T11:24:46;11.32;;;4.55;;
16426;SDS011;8322;-33.900;151.170;2023-12-29T11:27:18;11.18;;;4.22;;
16426;SDS011;8322;-33.900;151.170;2023-12-29T11:29:48;8.82;;;4.25;;
16426;SDS011;8322;-33.900;151.170;2023-12-29T11:32:18;9.30;;;4.03;;
16426;SDS011;8322;-33.900;151.170;2023-12-29T11:34:49;8.38;;;3.38;;
16426;SDS011;8322;-33.900;151.170;2023-12-29T11:37:28;8.05;;;2.83;;
16426;SDS011;8322;-33.900;151.170;2023-12-29T11:40:10;7.80;;;2.80;;
16426;SDS011;8322;-33.900;151.170;2023-12-29T11:42:45;6.93;;;2.67;;
16426;SDS011;8322;-33.900;151.170;2023-12-29T11:45:25;8.25;;;2.55;;
16426;SDS011;8322;-33.900;151.170;2023-12-29T11:47:58;5.65;;;2.20;;
16426;SDS011;8322;-33.900;151.170;2023-12-29T11:50:29;6.40;;;2.47;;
16426;SDS011;8322;-33.900;151.170;2023-12-29T11:52:59;5.53;;;2.20;;
16426;SDS011;8322;-33.900;151.170;2023-12-29T11:55:29;4.72;;;2.05;;
16426;SDS011;8322;-33.900;151.170;2023-12-29T11:58:00;4.20;;;2.08;;
16426;SDS011;8322;-33.900;151.170;2023-12-29T12:00:43;5.55;;;2.00;;
16426;SDS011;8322;-33.900;151.170;2023-12-29T12:03:24;5.40;;;2.25;;
16426;SDS011;8322;-33.900;151.170;2023-12-29T12:05:54;5.97;;;2.05;;
16426;SDS011;8322;-33.900;151.170;2023-12-29T12:08:28;5.70;;;1.90;;
16426;SDS011;8322;-33.900;151.170;2023-12-29T12:10:59;5.60;;;1.90;;
16426;SDS011;8322;-33.900;151.170;2023-12-29T12:13:49;6.93;;;2.20;;
16426;SDS011;8322;-33.900;151.170;2023-12-29T12:19:05;6.00;;;2.10;;
16426;SDS011;8322;-33.900;151.170;2023-12-29T12:21:36;8.07;;;2.08;;
16426;SDS011;8322;-33.900;151.170;2023-12-29T12:24:06;5.55;;;2.05;;
16426;SDS011;8322;-33.900;151.170;2023-12-29T12:26:35;6.18;;;1.98;;
16426;SDS011;8322;-33.900;151.170;2023-12-29T12:29:07;6.35;;;1.90;;
16426;SDS011;8322;-33.900;151.170;2023-12-29T12:31:38;7.95;;;2.25;;
16426;SDS011;8322;-33.900;151.170;2023-12-29T12:34:20;6.60;;;2.33;;
16426;SDS011;8322;-33.900;151.170;2023-12-29T12:36:50;4.47;;;2.08;;
16426;SDS011;8322;-33.900;151.170;2023-12-29T12:39:22;4.10;;;2.00;;
16426;SDS011;8322;-33.900;151.170;2023-12-29T12:41:51;5.32;;;2.28;;
16426;SDS011;8322;-33.900;151.170;2023-12-29T12:44:23;5.20;;;2.00;;
16426;SDS011;8322;-33.900;151.170;2023-12-29T12:46:55;7.55;;;2.20;;
16426;SDS011;8322;-33.900;151.170;2023-12-29T12:49:25;6.63;;;2.08;;
16426;SDS011;8322;-33.900;151.170;2023-12-29T12:51:55;6.07;;;1.80;;
16426;SDS011;8322;-33.900;151.170;2023-12-29T12:54:25;5.53;;;1.50;;
16426;SDS011;8322;-33.900;151.170;2023-12-29T12:56:54;3.67;;;1.70;;
16426;SDS011;8322;-33.900;151.170;2023-12-29T12:59:26;4.18;;;1.55;;
16426;SDS011;8322;-33.900;151.170;2023-12-29T13:01:56;4.45;;;1.80;;
16426;SDS011;8322;-33.900;151.170;2023-12-29T13:04:26;7.38;;;1.75;;
16426;SDS011;8322;-33.900;151.170;2023-12-29T13:06:55;6.60;;;2.25;;
16426;SDS011;8322;-33.900;151.170;2023-12-29T13:09:25;7.28;;;2.40;;
16426;SDS011;8322;-33.900;151.170;2023-12-29T13:12:07;7.38;;;2.90;;
16426;SDS011;8322;-33.900;151.170;2023-12-29T13:14:38;5.75;;;2.60;;
16426;SDS011;8322;-33.900;151.170;2023-12-29T13:17:08;7.53;;;2.83;;
16426;SDS011;8322;-33.900;151.170;2023-12-29T13:19:38;8.32;;;3.00;;
16426;SDS011;8322;-33.900;151.170;2023-12-29T13:22:09;6.10;;;2.58;;
16426;SDS011;8322;-33.900;151.170;2023-12-29T13:24:43;8.32;;;2.67;;
16426;SDS011;8322;-33.900;151.170;2023-12-29T13:27:13;6.78;;;2.90;;
16426;SDS011;8322;-33.900;151.170;2023-12-29T13:29:45;11.10;;;3.17;;
16426;SDS011;8322;-33.900;151.170;2023-12-29T13:32:15;11.57;;;3.35;;
16426;SDS011;8322;-33.900;151.170;2023-12-29T13:34:51;8.15;;;3.28;;
16426;SDS011;8322;-33.900;151.170;2023-12-29T13:37:24;6.20;;;2.63;;
16426;SDS011;8322;-33.900;151.170;2023-12-29T13:39:55;10.50;;;3.47;;
16426;SDS011;8322;-33.900;151.170;2023-12-29T13:42:26;8.95;;;2.95;;
16426;SDS011;8322;-33.900;151.170;2023-12-29T13:44:59;11.52;;;3.80;;
16426;SDS011;8322;-33.900;151.170;2023-12-29T13:47:30;8.18;;;3.10;;
16426;SDS011;8322;-33.900;151.170;2023-12-29T13:50:00;8.52;;;3.28;;
16426;SDS011;8322;-33.900;151.170;2023-12-29T13:52:30;6.03;;;2.53;;
16426;SDS011;8322;-33.900;151.170;2023-12-29T13:54:59;7.38;;;3.05;;
16426;SDS011;8322;-33.900;151.170;2023-12-29T13:57:32;5.30;;;2.78;;
16426;SDS011;8322;-33.900;151.170;2023-12-29T14:02:58;7.40;;;2.83;;
16426;SDS011;8322;-33.900;151.170;2023-12-29T14:05:31;7.57;;;2.92;;
16426;SDS011;8322;-33.900;151.170;2023-12-29T14:08:04;6.22;;;2.63;;
16426;SDS011;8322;-33.900;151.170;2023-12-29T14:10:35;7.13;;;2.40;;
16426;SDS011;8322;-33.900;151.170;2023-12-29T14:13:06;8.82;;;2.75;;
16426;SDS011;8322;-33.900;151.170;2023-12-29T14:15:36;7.05;;;2.60;;
16426;SDS011;8322;-33.900;151.170;2023-12-29T14:18:08;5.55;;;2.25;;
16426;SDS011;8322;-33.900;151.170;2023-12-29T14:20:39;7.95;;;2.60;;
16426;SDS011;8322;-33.900;151.170;2023-12-29T14:23:09;8.05;;;2.50;;
16426;SDS011;8322;-33.900;151.170;2023-12-29T14:25:38;10.10;;;2.63;;
16426;SDS011;8322;-33.900;151.170;2023-12-29T14:28:14;7.38;;;2.40;;
16426;SDS011;8322;-33.900;151.170;2023-12-29T14:30:43;7.43;;;2.20;;
16426;SDS011;8322;-33.900;151.170;2023-12-29T14:33:15;4.47;;;2.10;;
16426;SDS011;8322;-33.900;151.170;2023-12-29T14:35:44;7.57;;;2.28;;
16426;SDS011;8322;-33.900;151.170;2023-12-29T14:38:16;8.05;;;2.50;;
16426;SDS011;8322;-33.900;151.170;2023-12-29T14:40:46;7.32;;;2.50;;